sensor_id;sensor_type;location;lat;lon;timestamp;P1;durP1;ratioP1;P2;durP2;ratioP2
9342;SDS011;4710;51.382;7.244;2022-10-17T00:01:48;3.47;;;3.25;;
9342;SDS011;4710;51.382;7.244;2022-10-17T00:04:26;3.53;;;3.33;;
9342;SDS011;4710;51.382;7.244;2022-10-17T00:07:06;4.82;;;3.65;;
9342;SDS011;4710;51.382;7.244;2022-10-17T00:09:43;3.60;;;3.30;;
9342;SDS011;4710;51.382;7.244;2022-10-17T00:12:20;3.53;;;3.28;;
9342;SDS011;4710;51.382;7.244;2022-10-17T00:15:02;3.62;;;3.33;;
9342;SDS011;4710;51.382;7.244;2022-10-17T00:17:41;3.62;;;3.30;;
9342;SDS011;4710;51.382;7.244;2022-10-17T00:20:22;3.50;;;3.20;;
9342;SDS011;4710;51.382;7.244;2022-10-17T00:23:02;3.92;;;3.50;;
9342;SDS011;4710;51.382;7.244;2022-10-17T00:25:39;3.28;;;2.90;;
9342;SDS011;4710;51.382;7.244;2022-10-17T00:28:19;3.17;;;3.08;;
9342;SDS011;4710;51.382;7.244;2022-10-17T00:31:01;3.67;;;3.33;;
9342;SDS011;4710;51.382;7.244;2022-10-17T00:33:41;3.35;;;3.10;;
9342;SDS011;4710;51.382;7.244;2022-10-17T00:36:23;3.37;;;3.10;;
9342;SDS011;4710;51.382;7.244;2022-10-17T00:39:03;3.40;;;3.10;;
9342;SDS011;4710;51.382;7.244;2022-10-17T00:41:41;3.10;;;2.90;;
9342;SDS011;4710;51.382;7.244;2022-10-17T00:47:26;3.55;;;3.10;;
9342;SDS011;4710;51.382;7.244;2022-10-17T00:50:07;3.25;;;3.05;;
9342;SDS011;4710;51.382;7.244;2022-10-17T00:52:48;5.47;;;3.12;;
9342;SDS011;4710;51.382;7.244;2022-10-17T00:55:27;3.12;;;2.80;;
9342;SDS011;4710;51.382;7.244;2022-10-17T00:58:08;5.30;;;2.95;;
9342;SDS011;4710;51.382;7.244;2022-10-17T01:00:45;3.22;;;3.03;;
9342;SDS011;4710;51.382;7.244;2022-10-17T01:03:26;3.30;;;2.90;;
9342;SDS011;4710;51.382;7.244;2022-10-17T01:06:06;4.75;;;2.85;;
9342;SDS011;4710;51.382;7.244;2022-10-17T01:08:43;3.03;;;2.83;;
9342;SDS011;4710;51.382;7.244;2022-10-17T01:11:26;4.82;;;2.90;;
9342;SDS011;4710;51.382;7.244;2022-10-17T01:14:12;3.20;;;2.90;;
9342;SDS011;4710;51.382;7.244;2022-10-17T01:16:52;3.00;;;2.80;;
9342;SDS011;4710;51.382;7.244;2022-10-17T01:22:26;3.53;;;3.30;;
9342;SDS011;4710;51.382;7.244;2022-10-17T01:25:22;2.90;;;2.80;;
9342;SDS011;4710;51.382;7.244;2022-10-17T01:28:26;2.80;;;2.55;;
9342;SDS011;4710;51.382;7.244;2022-10-17T01:31:13;3.00;;;2.80;;
9342;SDS011;4710;51.382;7.244;2022-10-17T01:34:09;3.00;;;2.80;;
9342;SDS011;4710;51.382;7.244;2022-10-17T01:36:55;2.70;;;2.60;;
9342;SDS011;4710;51.382;7.244;2022-10-17T01:42:34;3.05;;;2.85;;
9342;SDS011;4710;51.382;7.244;2022-10-17T01:45:18;3.17;;;2.80;;
9342;SDS011;4710;51.382;7.244;2022-10-17T01:48:02;3.33;;;3.10;;
9342;SDS011;4710;51.382;7.244;2022-10-17T01:50:42;2.87;;;2.67;;
9342;SDS011;4710;51.382;7.244;2022-10-17T01:53:27;4.43;;;2.90;;
9342;SDS011;4710;51.382;7.244;2022-10-17T01:56:06;2.95;;;2.60;;
9342;SDS011;4710;51.382;7.244;2022-10-17T01:58:51;3.62;;;2.75;;
9342;SDS011;4710;51.382;7.244;2022-10-17T02:01:31;2.85;;;2.65;;
9342;SDS011;4710;51.382;7.244;2022-10-17T02:04:12;3.00;;;2.70;;
9342;SDS011;4710;51.382;7.244;2022-10-17T02:06:49;3.75;;;2.60;;
9342;SDS011;4710;51.382;7.244;2022-10-17T02:09:26;2.85;;;2.75;;
9342;SDS011;4710;51.382;7.244;2022-10-17T02:12:20;2.67;;;2.55;;
9342;SDS011;4710;51.382;7.244;2022-10-17T02:15:07;3.00;;;2.70;;
9342;SDS011;4710;51.382;7.244;2022-10-17T02:18:11;3.17;;;2.72;;
9342;SDS011;4710;51.382;7.244;2022-10-17T02:23:54;3.20;;;2.97;;
9342;SDS011;4710;51.382;7.244;2022-10-17T02:26:41;3.10;;;2.80;;
9342;SDS011;4710;51.382;7.244;2022-10-17T02:29:23;2.70;;;2.53;;
9342;SDS011;4710;51.382;7.244;2022-10-17T02:32:04;2.47;;;2.37;;
9342;SDS011;4710;51.382;7.244;2022-10-17T02:34:49;2.58;;;2.42;;
9342;SDS011;4710;51.382;7.244;2022-10-17T02:37:29;2.67;;;2.58;;
9342;SDS011;4710;51.382;7.244;2022-10-17T02:40:11;3.12;;;2.92;;
9342;SDS011;4710;51.382;7.244;2022-10-17T02:42:55;3.10;;;2.70;;
9342;SDS011;4710;51.382;7.244;2022-10-17T02:45:36;3.12;;;2.80;;
9342;SDS011;4710;51.382;7.244;2022-10-17T02:48:21;3.12;;;2.90;;
9342;SDS011;4710;51.382;7.244;2022-10-17T02:51:11;3.72;;;2.65;;
9342;SDS011;4710;51.382;7.244;2022-10-17T02:57:00;3.40;;;2.90;;
9342;SDS011;4710;51.382;7.244;2022-10-17T02:59:40;2.70;;;2.50;;
9342;SDS011;4710;51.382;7.244;2022-10-17T03:02:21;4.00;;;2.67;;
9342;SDS011;4710;51.382;7.244;2022-10-17T03:04:59;3.47;;;2.80;;
9342;SDS011;4710;51.382;7.244;2022-10-17T03:07:36;3.03;;;2.78;;
9342;SDS011;4710;51.382;7.244;2022-10-17T03:10:14;3.70;;;2.60;;
9342;SDS011;4710;51.382;7.244;2022-10-17T03:12:51;2.80;;;2.70;;
9342;SDS011;4710;51.382;7.244;2022-10-17T03:15:28;2.72;;;2.62;;
9342;SDS011;4710;51.382;7.244;2022-10-17T03:18:05;2.95;;;2.65;;
9342;SDS011;4710;51.382;7.244;2022-10-17T03:20:46;3.08;;;2.70;;
9342;SDS011;4710;51.382;7.244;2022-10-17T03:23:23;3.90;;;2.60;;
9342;SDS011;4710;51.382;7.244;2022-10-17T03:26:05;3.10;;;2.90;;
9342;SDS011;4710;51.382;7.244;2022-10-17T03:28:47;3.17;;;2.55;;
9342;SDS011;4710;51.382;7.244;2022-10-17T03:31:33;3.40;;;2.83;;
9342;SDS011;4710;51.382;7.244;2022-10-17T03:34:11;3.90;;;2.90;;
9342;SDS011;4710;51.382;7.244;2022-10-17T03:36:48;5.78;;;2.80;;
9342;SDS011;4710;51.382;7.244;2022-10-17T03:39:25;2.87;;;2.72;;
9342;SDS011;4710;51.382;7.244;2022-10-17T03:42:09;2.83;;;2.72;;
9342;SDS011;4710;51.382;7.244;2022-10-17T03:44:49;2.78;;;2.58;;
9342;SDS011;4710;51.382;7.244;2022-10-17T03:47:27;3.15;;;2.87;;
9342;SDS011;4710;51.382;7.244;2022-10-17T03:50:10;4.70;;;2.70;;
9342;SDS011;4710;51.382;7.244;2022-10-17T03:52:56;2.75;;;2.55;;
9342;SDS011;4710;51.382;7.244;2022-10-17T03:55:34;2.95;;;2.65;;
9342;SDS011;4710;51.382;7.244;2022-10-17T03:58:15;3.90;;;2.80;;
9342;SDS011;4710;51.382;7.244;2022-10-17T04:00:56;5.75;;;2.62;;
9342;SDS011;4710;51.382;7.244;2022-10-17T04:03:36;2.60;;;2.40;;
9342;SDS011;4710;51.382;7.244;2022-10-17T04:06:13;2.85;;;2.70;;
9342;SDS011;4710;51.382;7.244;2022-10-17T04:08:59;3.60;;;2.65;;
9342;SDS011;4710;51.382;7.244;2022-10-17T04:11:45;3.40;;;2.60;;
9342;SDS011;4710;51.382;7.244;2022-10-17T04:14:23;2.75;;;2.55;;
9342;SDS011;4710;51.382;7.244;2022-10-17T04:17:00;3.30;;;2.50;;
9342;SDS011;4710;51.382;7.244;2022-10-17T04:19:37;3.17;;;2.53;;
9342;SDS011;4710;51.382;7.244;2022-10-17T04:22:16;4.37;;;2.80;;
9342;SDS011;4710;51.382;7.244;2022-10-17T04:24:57;4.65;;;2.62;;
9342;SDS011;4710;51.382;7.244;2022-10-17T04:27:34;3.08;;;2.78;;
9342;SDS011;4710;51.382;7.244;2022-10-17T04:30:21;5.30;;;2.83;;
9342;SDS011;4710;51.382;7.244;2022-10-17T04:33:03;3.25;;;2.70;;
9342;SDS011;4710;51.382;7.244;2022-10-17T04:35:40;3.67;;;2.60;;
9342;SDS011;4710;51.382;7.244;2022-10-17T04:38:17;3.40;;;2.70;;
9342;SDS011;4710;51.382;7.244;2022-10-17T04:41:05;3.12;;;2.75;;
9342;SDS011;4710;51.382;7.244;2022-10-17T04:43:54;2.72;;;2.55;;
9342;SDS011;4710;51.382;7.244;2022-10-17T04:46:32;2.80;;;2.60;;
9342;SDS011;4710;51.382;7.244;2022-10-17T04:49:19;2.70;;;2.50;;
9342;SDS011;4710;51.382;7.244;2022-10-17T04:52:01;4.00;;;2.55;;
9342;SDS011;4710;51.382;7.244;2022-10-17T04:54:42;4.07;;;2.60;;
9342;SDS011;4710;51.382;7.244;2022-10-17T04:57:22;2.95;;;2.78;;
9342;SDS011;4710;51.382;7.244;2022-10-17T05:00:06;5.35;;;2.80;;
9342;SDS011;4710;51.382;7.244;2022-10-17T05:02:47;3.00;;;2.80;;
9342;SDS011;4710;51.382;7.244;2022-10-17T05:05:29;5.40;;;2.60;;
9342;SDS011;4710;51.382;7.244;2022-10-17T05:08:10;2.80;;;2.60;;
9342;SDS011;4710;51.382;7.244;2022-10-17T05:10:47;2.92;;;2.62;;
9342;SDS011;4710;51.382;7.244;2022-10-17T05:13:24;4.07;;;2.60;;
9342;SDS011;4710;51.382;7.244;2022-10-17T05:16:08;2.80;;;2.58;;
9342;SDS011;4710;51.382;7.244;2022-10-17T05:18:52;3.25;;;2.85;;
9342;SDS011;4710;51.382;7.244;2022-10-17T05:21:41;2.70;;;2.60;;
9342;SDS011;4710;51.382;7.244;2022-10-17T05:24:25;2.70;;;2.50;;
9342;SDS011;4710;51.382;7.244;2022-10-17T05:27:11;2.85;;;2.65;;
9342;SDS011;4710;51.382;7.244;2022-10-17T05:29:56;2.85;;;2.67;;
9342;SDS011;4710;51.382;7.244;2022-10-17T05:32:33;4.12;;;2.70;;
9342;SDS011;4710;51.382;7.244;2022-10-17T05:35:14;2.85;;;2.37;;
9342;SDS011;4710;51.382;7.244;2022-10-17T05:38:04;4.70;;;2.70;;
9342;SDS011;4710;51.382;7.244;2022-10-17T05:40:50;3.20;;;2.60;;
9342;SDS011;4710;51.382;7.244;2022-10-17T05:43:31;2.70;;;2.60;;
9342;SDS011;4710;51.382;7.244;2022-10-17T05:46:11;2.90;;;2.55;;
9342;SDS011;4710;51.382;7.244;2022-10-17T05:48:51;4.45;;;2.92;;
9342;SDS011;4710;51.382;7.244;2022-10-17T05:51:32;3.20;;;2.80;;
9342;SDS011;4710;51.382;7.244;2022-10-17T05:54:12;2.97;;;2.60;;
9342;SDS011;4710;51.382;7.244;2022-10-17T05:56:53;3.05;;;2.55;;
9342;SDS011;4710;51.382;7.244;2022-10-17T05:59:33;3.25;;;2.70;;
9342;SDS011;4710;51.382;7.244;2022-10-17T06:02:11;6.03;;;2.70;;
9342;SDS011;4710;51.382;7.244;2022-10-17T06:04:51;3.33;;;2.62;;
9342;SDS011;4710;51.382;7.244;2022-10-17T06:07:31;6.10;;;2.90;;
9342;SDS011;4710;51.382;7.244;2022-10-17T06:10:12;3.33;;;2.70;;
9342;SDS011;4710;51.382;7.244;2022-10-17T06:12:52;4.03;;;3.00;;
9342;SDS011;4710;51.382;7.244;2022-10-17T06:15:33;3.83;;;2.78;;
9342;SDS011;4710;51.382;7.244;2022-10-17T06:18:10;2.75;;;2.53;;
9342;SDS011;4710;51.382;7.244;2022-10-17T06:20:47;3.35;;;2.60;;
9342;SDS011;4710;51.382;7.244;2022-10-17T06:23:25;5.37;;;2.97;;
9342;SDS011;4710;51.382;7.244;2022-10-17T06:26:08;3.70;;;2.83;;
9342;SDS011;4710;51.382;7.244;2022-10-17T06:28:45;3.47;;;2.90;;
9342;SDS011;4710;51.382;7.244;2022-10-17T06:31:23;4.15;;;2.53;;
9342;SDS011;4710;51.382;7.244;2022-10-17T06:34:00;3.47;;;2.70;;
9342;SDS011;4710;51.382;7.244;2022-10-17T06:36:37;5.80;;;2.58;;
9342;SDS011;4710;51.382;7.244;2022-10-17T06:39:19;3.60;;;2.53;;
9342;SDS011;4710;51.382;7.244;2022-10-17T06:42:01;4.15;;;2.60;;
9342;SDS011;4710;51.382;7.244;2022-10-17T06:44:41;5.10;;;2.70;;
9342;SDS011;4710;51.382;7.244;2022-10-17T06:47:18;6.72;;;2.80;;
9342;SDS011;4710;51.382;7.244;2022-10-17T06:49:59;6.10;;;2.90;;
9342;SDS011;4710;51.382;7.244;2022-10-17T06:52:39;2.62;;;2.42;;
9342;SDS011;4710;51.382;7.244;2022-10-17T06:55:19;3.55;;;2.60;;
9342;SDS011;4710;51.382;7.244;2022-10-17T06:57:57;3.25;;;2.60;;
9342;SDS011;4710;51.382;7.244;2022-10-17T07:00:36;4.35;;;2.85;;
9342;SDS011;4710;51.382;7.244;2022-10-17T07:03:25;3.47;;;2.47;;
9342;SDS011;4710;51.382;7.244;2022-10-17T07:06:07;2.90;;;2.67;;
9342;SDS011;4710;51.382;7.244;2022-10-17T07:08:44;2.92;;;2.58;;
9342;SDS011;4710;51.382;7.244;2022-10-17T07:11:21;2.80;;;2.60;;
9342;SDS011;4710;51.382;7.244;2022-10-17T07:14:03;4.87;;;2.83;;
9342;SDS011;4710;51.382;7.244;2022-10-17T07:16:40;5.53;;;2.80;;
9342;SDS011;4710;51.382;7.244;2022-10-17T07:19:18;3.03;;;2.67;;
9342;SDS011;4710;51.382;7.244;2022-10-17T07:21:55;3.03;;;2.50;;
9342;SDS011;4710;51.382;7.244;2022-10-17T07:24:32;4.00;;;2.40;;
9342;SDS011;4710;51.382;7.244;2022-10-17T07:27:10;4.28;;;2.62;;
9342;SDS011;4710;51.382;7.244;2022-10-17T07:29:53;2.92;;;2.50;;
9342;SDS011;4710;51.382;7.244;2022-10-17T07:32:30;3.85;;;2.75;;
9342;SDS011;4710;51.382;7.244;2022-10-17T07:35:11;3.30;;;2.87;;
9342;SDS011;4710;51.382;7.244;2022-10-17T07:37:52;3.05;;;2.55;;
9342;SDS011;4710;51.382;7.244;2022-10-17T07:40:30;3.20;;;2.58;;
9342;SDS011;4710;51.382;7.244;2022-10-17T07:43:07;3.05;;;2.70;;
9342;SDS011;4710;51.382;7.244;2022-10-17T07:45:44;5.93;;;2.80;;
9342;SDS011;4710;51.382;7.244;2022-10-17T07:48:25;2.87;;;2.55;;
9342;SDS011;4710;51.382;7.244;2022-10-17T07:51:07;3.15;;;2.75;;
9342;SDS011;4710;51.382;7.244;2022-10-17T07:53:46;4.03;;;2.62;;
9342;SDS011;4710;51.382;7.244;2022-10-17T07:56:30;3.30;;;2.60;;
9342;SDS011;4710;51.382;7.244;2022-10-17T07:59:10;2.83;;;2.50;;
9342;SDS011;4710;51.382;7.244;2022-10-17T08:01:48;3.30;;;2.50;;
9342;SDS011;4710;51.382;7.244;2022-10-17T08:04:26;3.78;;;2.47;;
9342;SDS011;4710;51.382;7.244;2022-10-17T08:07:06;3.58;;;2.75;;
9342;SDS011;4710;51.382;7.244;2022-10-17T08:09:45;8.50;;;2.80;;
9342;SDS011;4710;51.382;7.244;2022-10-17T08:12:28;2.90;;;2.70;;
9342;SDS011;4710;51.382;7.244;2022-10-17T08:15:09;5.57;;;2.67;;
9342;SDS011;4710;51.382;7.244;2022-10-17T08:17:46;3.08;;;2.42;;
9342;SDS011;4710;51.382;7.244;2022-10-17T08:20:26;2.60;;;2.40;;
9342;SDS011;4710;51.382;7.244;2022-10-17T08:23:04;3.83;;;2.47;;
9342;SDS011;4710;51.382;7.244;2022-10-17T08:25:41;2.62;;;2.33;;
9342;SDS011;4710;51.382;7.244;2022-10-17T08:28:19;2.90;;;2.78;;
9342;SDS011;4710;51.382;7.244;2022-10-17T08:31:02;2.53;;;2.40;;
9342;SDS011;4710;51.382;7.244;2022-10-17T08:33:47;3.10;;;2.40;;
9342;SDS011;4710;51.382;7.244;2022-10-17T08:36:24;3.30;;;2.72;;
9342;SDS011;4710;51.382;7.244;2022-10-17T08:39:08;3.12;;;2.70;;
9342;SDS011;4710;51.382;7.244;2022-10-17T08:41:49;5.87;;;2.70;;
9342;SDS011;4710;51.382;7.244;2022-10-17T08:44:47;2.85;;;2.60;;
9342;SDS011;4710;51.382;7.244;2022-10-17T08:47:27;3.15;;;2.53;;
9342;SDS011;4710;51.382;7.244;2022-10-17T08:50:23;2.80;;;2.60;;
9342;SDS011;4710;51.382;7.244;2022-10-17T08:53:16;4.97;;;2.65;;
9342;SDS011;4710;51.382;7.244;2022-10-17T08:55:55;3.80;;;2.80;;
9342;SDS011;4710;51.382;7.244;2022-10-17T08:58:35;4.97;;;2.72;;
9342;SDS011;4710;51.382;7.244;2022-10-17T09:01:25;3.42;;;2.50;;
9342;SDS011;4710;51.382;7.244;2022-10-17T09:04:24;2.50;;;2.30;;
9342;SDS011;4710;51.382;7.244;2022-10-17T09:10:21;3.75;;;2.78;;
9342;SDS011;4710;51.382;7.244;2022-10-17T09:13:12;4.20;;;2.60;;
9342;SDS011;4710;51.382;7.244;2022-10-17T09:19:09;3.15;;;2.40;;
9342;SDS011;4710;51.382;7.244;2022-10-17T09:21:51;2.90;;;2.55;;
9342;SDS011;4710;51.382;7.244;2022-10-17T09:24:37;4.78;;;2.75;;
9342;SDS011;4710;51.382;7.244;2022-10-17T09:27:23;2.67;;;2.50;;
9342;SDS011;4710;51.382;7.244;2022-10-17T09:33:11;3.72;;;2.70;;
9342;SDS011;4710;51.382;7.244;2022-10-17T09:35:55;3.83;;;2.60;;
9342;SDS011;4710;51.382;7.244;2022-10-17T09:38:38;3.45;;;2.47;;
9342;SDS011;4710;51.382;7.244;2022-10-17T09:41:19;2.90;;;2.55;;
9342;SDS011;4710;51.382;7.244;2022-10-17T09:49:59;2.58;;;2.40;;
9342;SDS011;4710;51.382;7.244;2022-10-17T09:52:50;3.17;;;2.70;;
9342;SDS011;4710;51.382;7.244;2022-10-17T09:55:37;2.67;;;2.45;;
9342;SDS011;4710;51.382;7.244;2022-10-17T09:58:19;4.85;;;2.67;;
9342;SDS011;4710;51.382;7.244;2022-10-17T10:00:57;3.45;;;2.40;;
9342;SDS011;4710;51.382;7.244;2022-10-17T10:03:37;4.82;;;2.47;;
9342;SDS011;4710;51.382;7.244;2022-10-17T10:06:16;4.18;;;2.25;;
9342;SDS011;4710;51.382;7.244;2022-10-17T10:08:55;2.83;;;2.20;;
9342;SDS011;4710;51.382;7.244;2022-10-17T10:14:37;2.78;;;2.40;;
9342;SDS011;4710;51.382;7.244;2022-10-17T10:17:26;5.78;;;2.53;;
9342;SDS011;4710;51.382;7.244;2022-10-17T10:23:17;3.97;;;2.40;;
9342;SDS011;4710;51.382;7.244;2022-10-17T10:26:00;4.32;;;2.40;;
9342;SDS011;4710;51.382;7.244;2022-10-17T10:28:41;2.78;;;2.60;;
9342;SDS011;4710;51.382;7.244;2022-10-17T10:31:28;3.80;;;2.30;;
9342;SDS011;4710;51.382;7.244;2022-10-17T10:34:21;3.03;;;2.50;;
9342;SDS011;4710;51.382;7.244;2022-10-17T10:37:04;4.35;;;2.60;;
9342;SDS011;4710;51.382;7.244;2022-10-17T10:39:48;4.30;;;2.37;;
9342;SDS011;4710;51.382;7.244;2022-10-17T10:42:35;3.28;;;2.50;;
9342;SDS011;4710;51.382;7.244;2022-10-17T10:45:22;4.68;;;2.80;;
9342;SDS011;4710;51.382;7.244;2022-10-17T10:48:05;3.70;;;2.47;;
9342;SDS011;4710;51.382;7.244;2022-10-17T10:50:51;2.92;;;2.45;;
9342;SDS011;4710;51.382;7.244;2022-10-17T10:53:35;4.78;;;2.40;;
9342;SDS011;4710;51.382;7.244;2022-10-17T10:56:29;4.07;;;2.72;;
9342;SDS011;4710;51.382;7.244;2022-10-17T10:59:18;5.03;;;2.45;;
9342;SDS011;4710;51.382;7.244;2022-10-17T11:02:02;3.37;;;2.47;;
9342;SDS011;4710;51.382;7.244;2022-10-17T11:04:53;3.67;;;2.40;;
9342;SDS011;4710;51.382;7.244;2022-10-17T11:07:35;3.95;;;2.40;;
9342;SDS011;4710;51.382;7.244;2022-10-17T11:10:24;3.30;;;2.50;;
9342;SDS011;4710;51.382;7.244;2022-10-17T11:13:17;3.12;;;2.53;;
9342;SDS011;4710;51.382;7.244;2022-10-17T11:16:14;5.35;;;2.62;;
9342;SDS011;4710;51.382;7.244;2022-10-17T11:18:44;4.72;;;2.80;;
9342;SDS011;4710;51.382;7.244;2022-10-17T11:24:38;4.80;;;2.60;;
9342;SDS011;4710;51.382;7.244;2022-10-17T11:27:17;3.70;;;2.55;;
9342;SDS011;4710;51.382;7.244;2022-10-17T11:30:01;3.37;;;2.30;;
9342;SDS011;4710;51.382;7.244;2022-10-17T11:32:46;2.85;;;2.47;;
9342;SDS011;4710;51.382;7.244;2022-10-17T11:35:36;3.28;;;2.45;;
9342;SDS011;4710;51.382;7.244;2022-10-17T11:38:21;2.53;;;2.33;;
9342;SDS011;4710;51.382;7.244;2022-10-17T11:41:23;3.35;;;2.70;;
9342;SDS011;4710;51.382;7.244;2022-10-17T11:44:14;3.33;;;2.80;;
9342;SDS011;4710;51.382;7.244;2022-10-17T11:47:00;5.40;;;2.62;;
9342;SDS011;4710;51.382;7.244;2022-10-17T11:49:43;4.72;;;2.65;;
9342;SDS011;4710;51.382;7.244;2022-10-17T11:55:22;7.32;;;2.95;;
9342;SDS011;4710;51.382;7.244;2022-10-17T12:00:57;3.90;;;2.83;;
9342;SDS011;4710;51.382;7.244;2022-10-17T12:03:59;4.15;;;2.90;;
9342;SDS011;4710;51.382;7.244;2022-10-17T12:09:31;2.90;;;2.70;;
9342;SDS011;4710;51.382;7.244;2022-10-17T12:12:25;2.60;;;2.40;;
9342;SDS011;4710;51.382;7.244;2022-10-17T12:15:27;4.30;;;2.75;;
9342;SDS011;4710;51.382;7.244;2022-10-17T12:18:07;4.25;;;2.60;;
9342;SDS011;4710;51.382;7.244;2022-10-17T12:20:54;6.93;;;2.90;;
9342;SDS011;4710;51.382;7.244;2022-10-17T12:23:30;3.03;;;2.70;;
9342;SDS011;4710;51.382;7.244;2022-10-17T12:26:08;5.40;;;2.67;;
9342;SDS011;4710;51.382;7.244;2022-10-17T12:28:46;2.70;;;2.50;;
9342;SDS011;4710;51.382;7.244;2022-10-17T12:31:24;3.80;;;2.60;;
9342;SDS011;4710;51.382;7.244;2022-10-17T12:34:04;3.72;;;2.50;;
9342;SDS011;4710;51.382;7.244;2022-10-17T12:36:41;4.40;;;2.60;;
9342;SDS011;4710;51.382;7.244;2022-10-17T12:39:39;3.80;;;2.75;;
9342;SDS011;4710;51.382;7.244;2022-10-17T12:41:59;2.92;;;2.60;;
9342;SDS011;4710;51.382;7.244;2022-10-17T12:44:39;3.00;;;2.60;;
9342;SDS011;4710;51.382;7.244;2022-10-17T12:47:28;5.00;;;2.70;;
9342;SDS011;4710;51.382;7.244;2022-10-17T12:52:58;4.22;;;2.90;;
9342;SDS011;4710;51.382;7.244;2022-10-17T12:55:45;5.20;;;2.97;;
9342;SDS011;4710;51.382;7.244;2022-10-17T12:58:28;3.25;;;2.65;;
9342;SDS011;4710;51.382;7.244;2022-10-17T13:01:15;3.05;;;2.78;;
9342;SDS011;4710;51.382;7.244;2022-10-17T13:04:03;4.57;;;2.50;;
9342;SDS011;4710;51.382;7.244;2022-10-17T13:06:46;3.10;;;2.72;;
9342;SDS011;4710;51.382;7.244;2022-10-17T13:09:27;2.92;;;2.62;;
9342;SDS011;4710;51.382;7.244;2022-10-17T13:12:11;3.22;;;2.53;;
9342;SDS011;4710;51.382;7.244;2022-10-17T13:14:53;5.45;;;2.70;;
9342;SDS011;4710;51.382;7.244;2022-10-17T13:17:31;3.08;;;2.70;;
9342;SDS011;4710;51.382;7.244;2022-10-17T13:20:17;4.03;;;2.80;;
9342;SDS011;4710;51.382;7.244;2022-10-17T13:22:57;4.05;;;3.35;;
9342;SDS011;4710;51.382;7.244;2022-10-17T13:25:38;2.92;;;2.58;;
9342;SDS011;4710;51.382;7.244;2022-10-17T13:28:16;4.22;;;2.70;;
9342;SDS011;4710;51.382;7.244;2022-10-17T13:30:53;5.10;;;2.70;;
9342;SDS011;4710;51.382;7.244;2022-10-17T13:33:36;3.67;;;2.90;;
9342;SDS011;4710;51.382;7.244;2022-10-17T13:36:14;2.78;;;2.55;;
9342;SDS011;4710;51.382;7.244;2022-10-17T13:38:59;4.72;;;2.65;;
9342;SDS011;4710;51.382;7.244;2022-10-17T13:41:39;3.20;;;3.00;;
9342;SDS011;4710;51.382;7.244;2022-10-17T13:44:18;5.37;;;2.90;;
9342;SDS011;4710;51.382;7.244;2022-10-17T13:47:02;2.87;;;2.62;;
9342;SDS011;4710;51.382;7.244;2022-10-17T13:49:40;3.53;;;2.70;;
9342;SDS011;4710;51.382;7.244;2022-10-17T13:52:22;4.70;;;3.15;;
9342;SDS011;4710;51.382;7.244;2022-10-17T13:55:07;6.57;;;5.60;;
9342;SDS011;4710;51.382;7.244;2022-10-17T13:57:46;3.85;;;2.70;;
9342;SDS011;4710;51.382;7.244;2022-10-17T14:00:24;5.20;;;2.60;;
9342;SDS011;4710;51.382;7.244;2022-10-17T14:03:04;4.47;;;2.72;;
9342;SDS011;4710;51.382;7.244;2022-10-17T14:08:33;3.75;;;2.70;;
9342;SDS011;4710;51.382;7.244;2022-10-17T14:11:35;4.18;;;2.70;;
9342;SDS011;4710;51.382;7.244;2022-10-17T14:14:19;4.75;;;2.70;;
9342;SDS011;4710;51.382;7.244;2022-10-17T14:16:58;3.53;;;2.58;;
9342;SDS011;4710;51.382;7.244;2022-10-17T14:19:35;4.07;;;2.70;;
9342;SDS011;4710;51.382;7.244;2022-10-17T14:22:14;2.85;;;2.60;;
9342;SDS011;4710;51.382;7.244;2022-10-17T14:25:04;3.95;;;3.30;;
9342;SDS011;4710;51.382;7.244;2022-10-17T14:30:41;5.22;;;2.67;;
9342;SDS011;4710;51.382;7.244;2022-10-17T14:33:24;5.35;;;3.12;;
9342;SDS011;4710;51.382;7.244;2022-10-17T14:36:12;4.55;;;2.87;;
9342;SDS011;4710;51.382;7.244;2022-10-17T14:38:49;6.30;;;3.00;;
9342;SDS011;4710;51.382;7.244;2022-10-17T14:41:32;4.07;;;2.92;;
9342;SDS011;4710;51.382;7.244;2022-10-17T14:44:19;3.42;;;2.92;;
9342;SDS011;4710;51.382;7.244;2022-10-17T14:47:03;4.75;;;2.95;;
9342;SDS011;4710;51.382;7.244;2022-10-17T14:49:42;5.62;;;2.95;;
9342;SDS011;4710;51.382;7.244;2022-10-17T14:52:32;6.70;;;3.12;;
9342;SDS011;4710;51.382;7.244;2022-10-17T14:55:15;4.57;;;2.90;;
9342;SDS011;4710;51.382;7.244;2022-10-17T14:57:51;4.68;;;2.90;;
9342;SDS011;4710;51.382;7.244;2022-10-17T15:00:28;6.55;;;3.20;;
9342;SDS011;4710;51.382;7.244;2022-10-17T15:03:07;5.12;;;3.03;;
9342;SDS011;4710;51.382;7.244;2022-10-17T15:05:45;3.62;;;2.80;;
9342;SDS011;4710;51.382;7.244;2022-10-17T15:08:22;3.22;;;3.00;;
9342;SDS011;4710;51.382;7.244;2022-10-17T15:11:00;4.00;;;3.00;;
9342;SDS011;4710;51.382;7.244;2022-10-17T15:13:37;5.45;;;3.40;;
9342;SDS011;4710;51.382;7.244;2022-10-17T15:16:18;4.57;;;2.83;;
9342;SDS011;4710;51.382;7.244;2022-10-17T15:19:00;3.72;;;3.03;;
9342;SDS011;4710;51.382;7.244;2022-10-17T15:21:41;5.72;;;3.03;;
9342;SDS011;4710;51.382;7.244;2022-10-17T15:24:21;5.82;;;3.17;;
9342;SDS011;4710;51.382;7.244;2022-10-17T15:27:00;3.97;;;2.58;;
9342;SDS011;4710;51.382;7.244;2022-10-17T15:29:50;5.00;;;2.70;;
9342;SDS011;4710;51.382;7.244;2022-10-17T15:32:30;5.03;;;3.17;;
9342;SDS011;4710;51.382;7.244;2022-10-17T15:35:08;3.60;;;2.90;;
9342;SDS011;4710;51.382;7.244;2022-10-17T15:37:48;4.18;;;3.00;;
9342;SDS011;4710;51.382;7.244;2022-10-17T15:40:27;5.60;;;2.90;;
9342;SDS011;4710;51.382;7.244;2022-10-17T15:43:04;5.10;;;3.00;;
9342;SDS011;4710;51.382;7.244;2022-10-17T15:45:45;5.00;;;3.10;;
9342;SDS011;4710;51.382;7.244;2022-10-17T15:48:27;3.30;;;3.00;;
9342;SDS011;4710;51.382;7.244;2022-10-17T15:51:06;6.28;;;3.20;;
9342;SDS011;4710;51.382;7.244;2022-10-17T15:53:50;8.43;;;3.53;;
9342;SDS011;4710;51.382;7.244;2022-10-17T15:56:37;4.53;;;3.00;;
9342;SDS011;4710;51.382;7.244;2022-10-17T15:59:20;5.97;;;3.17;;
9342;SDS011;4710;51.382;7.244;2022-10-17T16:01:59;7.20;;;3.47;;
9342;SDS011;4710;51.382;7.244;2022-10-17T16:04:42;4.80;;;3.10;;
9342;SDS011;4710;51.382;7.244;2022-10-17T16:07:23;3.62;;;3.33;;
9342;SDS011;4710;51.382;7.244;2022-10-17T16:10:12;3.90;;;3.42;;
9342;SDS011;4710;51.382;7.244;2022-10-17T16:12:57;6.05;;;3.30;;
9342;SDS011;4710;51.382;7.244;2022-10-17T16:15:37;3.62;;;3.40;;
9342;SDS011;4710;51.382;7.244;2022-10-17T16:18:23;5.70;;;3.22;;
9342;SDS011;4710;51.382;7.244;2022-10-17T16:21:04;5.60;;;3.37;;
9342;SDS011;4710;51.382;7.244;2022-10-17T16:23:41;7.95;;;3.60;;
9342;SDS011;4710;51.382;7.244;2022-10-17T16:26:31;4.80;;;3.55;;
9342;SDS011;4710;51.382;7.244;2022-10-17T16:29:14;4.10;;;3.50;;
9342;SDS011;4710;51.382;7.244;2022-10-17T16:31:51;5.18;;;3.65;;
9342;SDS011;4710;51.382;7.244;2022-10-17T16:34:37;5.87;;;4.00;;
9342;SDS011;4710;51.382;7.244;2022-10-17T16:37:15;4.40;;;3.78;;
9342;SDS011;4710;51.382;7.244;2022-10-17T16:39:52;8.82;;;4.00;;
9342;SDS011;4710;51.382;7.244;2022-10-17T16:42:36;4.43;;;3.78;;
9342;SDS011;4710;51.382;7.244;2022-10-17T16:45:18;4.32;;;3.92;;
9342;SDS011;4710;51.382;7.244;2022-10-17T16:48:05;7.47;;;4.28;;
9342;SDS011;4710;51.382;7.244;2022-10-17T16:50:45;5.87;;;4.18;;
9342;SDS011;4710;51.382;7.244;2022-10-17T16:53:25;5.40;;;4.28;;
9342;SDS011;4710;51.382;7.244;2022-10-17T16:56:05;5.57;;;4.20;;
9342;SDS011;4710;51.382;7.244;2022-10-17T16:58:46;4.35;;;3.95;;
9342;SDS011;4710;51.382;7.244;2022-10-17T17:01:26;4.87;;;4.43;;
9342;SDS011;4710;51.382;7.244;2022-10-17T17:04:04;4.53;;;4.12;;
9342;SDS011;4710;51.382;7.244;2022-10-17T17:06:45;5.32;;;4.10;;
9342;SDS011;4710;51.382;7.244;2022-10-17T17:09:22;4.82;;;4.03;;
9342;SDS011;4710;51.382;7.244;2022-10-17T17:12:02;5.90;;;4.25;;
9342;SDS011;4710;51.382;7.244;2022-10-17T17:14:43;6.60;;;4.03;;
9342;SDS011;4710;51.382;7.244;2022-10-17T17:17:20;5.10;;;4.28;;
9342;SDS011;4710;51.382;7.244;2022-10-17T17:20:01;4.55;;;4.20;;
9342;SDS011;4710;51.382;7.244;2022-10-17T17:22:38;4.22;;;3.92;;
9342;SDS011;4710;51.382;7.244;2022-10-17T17:25:16;4.45;;;4.05;;
9342;SDS011;4710;51.382;7.244;2022-10-17T17:28:02;5.00;;;4.03;;
9342;SDS011;4710;51.382;7.244;2022-10-17T17:30:42;4.50;;;4.20;;
9342;SDS011;4710;51.382;7.244;2022-10-17T17:33:22;6.43;;;4.70;;
9342;SDS011;4710;51.382;7.244;2022-10-17T17:36:00;4.95;;;4.55;;
9342;SDS011;4710;51.382;7.244;2022-10-17T17:38:38;6.37;;;4.60;;
9342;SDS011;4710;51.382;7.244;2022-10-17T17:41:17;4.82;;;4.45;;
9342;SDS011;4710;51.382;7.244;2022-10-17T17:43:59;5.20;;;4.70;;